Terminal Aerodrome Forecast
Issued by NWS Jackson, KY

Home | Current Version | Previous Version | Text Only | Print | Product List | Glossary On
Versions: 1 2 3 4 5 6 7 8 9 10 11 12 13 14 15 16 17
000
FTUS43 KJKL 172300
TAFLOZ
TAF
KLOZ 172339Z 1800/1824 25006KT P6SM SCT250
     FM180400 27004KT P6SM OVC050
     FM181000 28004KT P6SM OVC020
     FM181500 30008G15KT P6SM BKN035=

USA.gov is the U.S. government's official web portal to all federal, state and local government web resources and services.